Time;durP1;ratioP1;P1;durP2;ratioP2;P2;SDS_P1;SDS_P2;PMS_P1;PMS_P2;Temp;Humidity;BMP_temperature;BMP_pressure;BME280_temperature;BME280_humidity;BME280_pressure;Samples;Min_cycle;Max_cycle;Signal;HPM_P1;HPM_P2
2022/07/28 00:02:17;;;;;;;;;2.33;2.00;;;;;21.95;36.56;101151.03;5034022;28;45332;-67
2022/07/28 00:04:55;;;;;;;;;1.67;1.67;;;;;22.03;36.27;101151.59;5033940;28;47742;-67
2022/07/28 00:07:21;;;;;;;;;1.00;1.00;;;;;21.92;36.13;101140.47;5036074;28;45619;-67
2022/07/28 00:09:47;;;;;;;;;2.00;2.00;;;;;21.88;36.55;101141.50;5054305;28;45916;-66
2022/07/28 00:12:12;;;;;;;;;1.33;1.33;;;;;21.84;36.81;101146.09;5057489;28;45536;-65
2022/07/28 00:14:38;;;;;;;;;2.00;2.00;;;;;21.88;36.83;101144.16;5061046;28;45406;-65
2022/07/28 00:17:06;;;;;;;;;3.00;1.67;;;;;21.74;36.33;101104.72;5061334;28;45436;-65
2022/07/28 00:19:32;;;;;;;;;2.00;2.00;;;;;21.94;36.60;101143.94;5044230;28;45280;-67
2022/07/28 00:21:58;;;;;;;;;4.33;1.67;;;;;21.90;36.52;101143.22;5036609;28;45410;-67
2022/07/28 00:24:24;;;;;;;;;2.00;2.00;;;;;21.87;36.26;101132.63;5045736;28;46150;-66
2022/07/28 00:26:50;;;;;;;;;1.33;1.33;;;;;21.86;36.61;101135.38;5044662;28;45375;-67
2022/07/28 00:29:16;;;;;;;;;1.00;1.00;;;;;21.83;36.49;101117.72;5058741;28;45492;-67
2022/07/28 00:31:41;;;;;;;;;3.00;2.00;;;;;21.75;36.72;101104.66;5055129;28;45810;-67
2022/07/28 00:34:07;;;;;;;;;2.33;1.00;;;;;21.85;36.59;101128.28;5053065;28;45427;-69
2022/07/28 00:36:32;;;;;;;;;2.33;2.33;;;;;21.75;36.85;101125.13;5053649;28;45418;-68
2022/07/28 00:38:58;;;;;;;;;3.00;3.00;;;;;21.72;36.77;101126.09;5053521;28;45766;-65
2022/07/28 00:41:23;;;;;;;;;4.33;2.00;;;;;21.63;36.72;101115.78;5054590;28;45865;-69
2022/07/28 00:43:51;;;;;;;;;2.00;2.00;;;;;21.63;36.72;101122.91;5056619;28;46149;-67
2022/07/28 00:46:19;;;;;;;;;4.00;2.00;;;;;21.44;37.01;101110.28;5042152;28;45668;-67
2022/07/28 00:48:52;;;;;;;;;1.00;1.00;;;;;21.45;37.20;101109.38;5046863;28;45348;-67
2022/07/28 00:51:29;;;;;;;;;2.00;2.00;;;;;21.34;37.05;101096.41;5056525;28;45408;-66
2022/07/28 00:53:55;;;;;;;;;3.00;2.67;;;;;21.32;37.60;101103.56;5038543;28;46827;-67
2022/07/28 00:56:21;;;;;;;;;1.00;1.00;;;;;21.35;37.72;101113.25;5056397;28;45739;-67
2022/07/28 00:58:47;;;;;;;;;2.67;2.67;;;;;21.13;37.65;101081.22;5056416;28;45649;-69
2022/07/28 01:01:16;;;;;;;;;2.00;2.00;;;;;21.29;37.66;101095.72;5037716;28;45657;-67
2022/07/28 01:03:44;;;;;;;;;2.00;1.00;;;;;21.39;37.51;101107.78;5059115;28;46209;-67
2022/07/28 01:06:22;;;;;;;;;4.00;2.00;;;;;21.38;37.35;101097.19;5056497;28;45663;-68
2022/07/28 01:09:19;;;;;;;;;2.33;2.00;;;;;21.24;37.39;101073.69;5055814;28;45463;-66
2022/07/28 01:11:47;;;;;;;;;2.00;2.00;;;;;21.35;37.61;101095.47;5056359;28;45390;-66
2022/07/28 01:14:19;;;;;;;;;2.00;2.00;;;;;21.19;38.16;101070.34;5056087;28;45623;-67
2022/07/28 01:16:52;;;;;;;;;2.00;2.00;;;;;21.25;38.00;101087.88;5056179;28;45462;-69
2022/07/28 01:19:43;;;;;;;;;2.00;2.00;;;;;21.29;37.92;101090.38;5056336;28;45369;-68
2022/07/28 01:22:13;;;;;;;;;2.00;1.00;;;;;21.37;37.81;101087.44;5055835;28;45421;-67
2022/07/28 01:25:00;;;;;;;;;2.00;2.00;;;;;21.32;37.56;101089.41;5050632;28;45570;-67
2022/07/28 01:27:49;;;;;;;;;2.33;1.00;;;;;21.35;37.96;101094.59;5050359;28;45523;-67
2022/07/28 01:30:35;;;;;;;;;2.00;2.00;;;;;21.30;37.72;101089.44;5055671;28;45410;-68
2022/07/28 01:33:19;;;;;;;;;1.00;1.00;;;;;21.30;37.97;101086.78;5056220;28;45423;-68
2022/07/28 01:35:52;;;;;;;;;1.00;1.00;;;;;21.20;37.99;101069.41;5055657;28;45487;-67
2022/07/28 01:38:21;;;;;;;;;3.00;1.00;;;;;21.27;37.87;101080.72;5055825;28;45361;-69
2022/07/28 01:40:52;;;;;;;;;1.00;1.00;;;;;21.26;38.06;101087.84;5034320;28;45624;-67
2022/07/28 01:43:23;;;;;;;;;1.00;1.00;;;;;21.28;38.25;101080.63;5032519;28;45473;-67
2022/07/28 01:45:49;;;;;;;;;1.00;1.00;;;;;21.27;38.27;101086.91;5046502;28;45614;-67
2022/07/28 01:48:17;;;;;;;;;1.00;1.00;;;;;21.14;38.54;101074.94;5055291;28;45462;-66
2022/07/28 01:50:47;;;;;;;;;1.33;1.33;;;;;21.31;38.46;101080.53;5055523;28;45295;-67
2022/07/28 01:53:16;;;;;;;;;1.00;1.00;;;;;21.46;37.90;101081.78;5054710;28;45381;-68
2022/07/28 01:55:43;;;;;;;;;2.00;2.00;;;;;21.51;37.92;101071.81;5058352;28;46563;-67
2022/07/28 01:58:12;;;;;;;;;1.00;1.00;;;;;21.57;37.77;101076.91;5053501;28;45480;-67
2022/07/28 02:00:43;;;;;;;;;3.00;1.00;;;;;21.45;37.43;101040.09;5055342;28;45439;-65
2022/07/28 02:03:10;;;;;;;;;0.00;0.00;;;;;21.66;37.21;101062.34;5057252;28;45613;-67
2022/07/28 02:05:39;;;;;;;;;1.00;1.00;;;;;21.75;37.67;101072.66;5056263;28;45359;-67
2022/07/28 02:08:06;;;;;;;;;1.00;1.00;;;;;21.57;37.82;101070.72;5054929;28;45529;-66
2022/07/28 02:10:34;;;;;;;;;1.00;1.00;;;;;21.53;37.81;101064.63;5055334;28;45895;-66
2022/07/28 02:13:01;;;;;;;;;2.33;1.00;;;;;21.47;37.88;101067.53;5056600;28;45764;-67
2022/07/28 02:15:30;;;;;;;;;1.00;1.00;;;;;21.47;37.95;101064.00;5055211;28;46054;-66
2022/07/28 02:17:57;;;;;;;;;3.00;1.00;;;;;21.42;38.21;101055.31;5037118;28;45485;-68
2022/07/28 02:20:24;;;;;;;;;1.00;1.00;;;;;21.24;38.57;101060.38;5055283;28;45366;-67
2022/07/28 02:22:52;;;;;;;;;1.33;1.33;;;;;21.18;38.85;101056.13;5058825;28;45667;-68
2022/07/28 02:25:18;;;;;;;;;1.67;1.00;;;;;21.05;39.12;101046.00;5050716;28;45486;-67
2022/07/28 02:28:00;;;;;;;;;2.00;1.67;;;;;21.06;38.59;101053.06;5054787;28;45512;-67
2022/07/28 02:30:49;;;;;;;;;2.00;2.00;;;;;21.07;38.99;101046.81;5057052;28;45526;-67
2022/07/28 02:33:19;;;;;;;;;1.00;1.00;;;;;21.06;39.02;101051.25;5059838;28;45516;-67
2022/07/28 02:35:52;;;;;;;;;2.00;2.00;;;;;21.09;38.97;101048.47;5044428;28;45612;-68
2022/07/28 02:38:24;;;;;;;;;0.33;0.33;;;;;21.03;39.36;101047.84;5058489;28;45375;-67
2022/07/28 02:40:53;;;;;;;;;2.67;2.00;;;;;20.98;39.52;101041.84;5058993;28;45426;-66
2022/07/28 02:43:30;;;;;;;;;1.67;1.67;;;;;20.92;39.03;101042.91;5053984;28;45375;-67
2022/07/28 02:46:00;;;;;;;;;1.67;1.67;;;;;20.94;38.96;101044.59;5029302;28;46399;-67
2022/07/28 02:48:32;;;;;;;;;1.00;1.00;;;;;20.92;38.89;101021.59;5040299;28;45583;-66
2022/07/28 02:50:59;;;;;;;;;1.00;1.00;;;;;21.11;38.81;101029.78;5056998;28;45382;-66
2022/07/28 02:53:31;;;;;;;;;1.67;1.67;;;;;21.23;38.75;101032.00;5055290;28;45492;-67
2022/07/28 02:55:58;;;;;;;;;2.00;1.67;;;;;21.28;38.84;101040.66;5037285;28;46953;-66
2022/07/28 02:58:26;;;;;;;;;1.00;1.00;;;;;21.28;38.86;101043.34;5054755;28;45363;-66
2022/07/28 03:00:54;;;;;;;;;1.00;1.00;;;;;21.14;38.96;101038.56;5037602;28;45507;-66
2022/07/28 03:03:21;;;;;;;;;1.33;1.33;;;;;21.20;39.48;101041.91;5061294;28;45706;-65
2022/07/28 03:05:48;;;;;;;;;2.00;1.00;;;;;21.05;38.99;101022.91;5059662;28;45672;-64
2022/07/28 03:08:15;;;;;;;;;2.33;1.00;;;;;21.14;38.73;101021.69;5056576;28;45379;-65
2022/07/28 03:10:41;;;;;;;;;2.33;2.33;;;;;21.08;39.30;101027.25;5055587;28;45493;-65
2022/07/28 03:13:07;;;;;;;;;1.00;1.00;;;;;21.07;38.96;101031.72;5058539;28;45423;-65
2022/07/28 03:15:35;;;;;;;;;1.33;1.33;;;;;20.95;39.40;101022.38;5058687;28;45438;-65
2022/07/28 03:18:04;;;;;;;;;3.67;1.00;;;;;20.95;39.17;101021.47;5040671;28;45281;-65
2022/07/28 03:20:30;;;;;;;;;2.00;2.00;;;;;21.10;39.42;101046.72;5058723;28;45584;-66
2022/07/28 03:22:57;;;;;;;;;2.00;2.00;;;;;21.03;39.15;101051.38;5056225;28;45462;-67
2022/07/28 03:25:39;;;;;;;;;2.00;1.67;;;;;20.99;39.25;101035.56;5053862;28;46352;-66
2022/07/28 03:28:08;;;;;;;;;1.67;1.67;;;;;21.09;39.14;101037.81;5058640;28;45443;-66
2022/07/28 03:30:41;;;;;;;;;2.00;2.00;;;;;21.09;39.31;101028.97;5056181;28;45460;-67
2022/07/28 03:33:07;;;;;;;;;2.67;2.00;;;;;21.20;39.11;101039.25;5054006;28;45458;-66
2022/07/28 03:35:37;;;;;;;;;2.00;2.00;;;;;21.22;39.12;101030.25;5043668;28;45469;-67
2022/07/28 03:38:17;;;;;;;;;2.00;2.00;;;;;21.29;39.29;101030.91;5043509;28;45402;-66
2022/07/28 03:40:45;;;;;;;;;2.33;2.33;;;;;21.14;39.39;101035.88;5054241;28;45481;-66
2022/07/28 03:43:15;;;;;;;;;2.33;2.33;;;;;21.10;39.09;101030.72;5054428;28;45378;-65
2022/07/28 03:45:41;;;;;;;;;2.00;2.00;;;;;21.04;39.18;101026.47;5036230;28;46579;-66
2022/07/28 03:48:07;;;;;;;;;2.00;2.00;;;;;21.10;39.71;101031.59;5054218;28;45565;-66
2022/07/28 03:50:33;;;;;;;;;1.00;1.00;;;;;21.11;39.49;101030.66;5054412;28;45596;-66
2022/07/28 03:53:03;;;;;;;;;2.00;2.00;;;;;21.12;39.71;101036.88;5039697;28;45563;-66
2022/07/28 03:55:31;;;;;;;;;4.00;2.00;;;;;20.89;40.01;101019.06;5054122;28;45506;-67
2022/07/28 03:57:56;;;;;;;;;6.00;2.00;;;;;20.89;39.76;101038.56;5053283;28;45454;-67
2022/07/28 04:00:24;;;;;;;;;2.00;2.00;;;;;20.89;39.55;101027.06;5056409;28;45512;-65
2022/07/28 04:02:50;;;;;;;;;1.00;1.00;;;;;20.98;39.82;101039.19;5058245;28;45559;-66
2022/07/28 04:05:17;;;;;;;;;2.00;2.00;;;;;21.00;39.17;101038.19;5053553;28;45741;-67
2022/07/28 04:07:47;;;;;;;;;3.00;3.00;;;;;20.99;39.30;101032.91;5035561;28;45451;-66
2022/07/28 04:10:15;;;;;;;;;3.00;2.00;;;;;20.94;39.29;101033.94;5053480;28;45481;-69
2022/07/28 04:12:59;;;;;;;;;2.67;2.67;;;;;20.84;38.73;101023.69;5053958;28;45570;-67
2022/07/28 04:15:26;;;;;;;;;2.00;2.00;;;;;20.88;39.22;101039.50;5052748;28;45678;-66
2022/07/28 04:17:53;;;;;;;;;5.33;2.00;;;;;20.87;39.42;101037.75;5053739;28;45307;-67
2022/07/28 04:20:21;;;;;;;;;2.00;2.00;;;;;20.84;39.68;101026.34;5057560;28;45458;-66
2022/07/28 04:22:48;;;;;;;;;1.00;1.00;;;;;20.78;39.96;101040.75;5057947;28;45434;-67
2022/07/28 04:25:15;;;;;;;;;2.00;2.00;;;;;20.64;40.08;101025.25;5054423;28;46072;-66
2022/07/28 04:27:42;;;;;;;;;2.00;2.00;;;;;20.65;39.97;101028.81;5053318;28;45393;-67
2022/07/28 04:30:15;;;;;;;;;3.00;2.67;;;;;20.64;40.28;101029.72;5055625;28;45450;-66
2022/07/28 04:32:42;;;;;;;;;2.00;2.00;;;;;20.65;39.90;101026.16;5044065;28;45343;-66
2022/07/28 04:35:08;;;;;;;;;2.33;2.33;;;;;20.64;40.09;101025.25;5042481;28;45498;-66
2022/07/28 04:37:34;;;;;;;;;3.00;1.00;;;;;20.67;40.06;101027.81;5034720;28;46242;-66
2022/07/28 04:40:00;;;;;;;;;2.33;2.00;;;;;20.70;40.22;101026.84;5053430;28;45516;-67
2022/07/28 04:42:26;;;;;;;;;2.33;2.33;;;;;20.73;40.60;101019.59;5052939;28;45461;-66
2022/07/28 04:44:54;;;;;;;;;4.00;3.00;;;;;20.75;40.49;101025.75;5053561;28;46361;-68
2022/07/28 04:47:20;;;;;;;;;5.33;3.00;;;;;20.75;40.27;101017.75;5044502;28;45661;-66
2022/07/28 04:49:46;;;;;;;;;3.33;3.33;;;;;20.78;40.72;101016.78;5039571;28;45293;-67
2022/07/28 04:52:12;;;;;;;;;3.00;3.00;;;;;20.75;40.60;101019.56;5053463;28;45447;-66
2022/07/28 04:54:38;;;;;;;;;5.00;4.00;;;;;20.54;40.60;100991.88;5052532;28;45532;-66
2022/07/28 04:57:04;;;;;;;;;3.67;3.67;;;;;20.69;40.48;101017.09;5052631;28;45360;-67
2022/07/28 04:59:30;;;;;;;;;5.00;5.00;;;;;20.81;40.63;101018.47;5051867;28;45529;-67
2022/07/28 05:01:56;;;;;;;;;4.00;4.00;;;;;20.58;40.44;100982.03;5038042;28;45485;-66
2022/07/28 05:04:23;;;;;;;;;4.00;4.00;;;;;20.74;40.81;101021.34;5052899;28;46169;-66
2022/07/28 05:06:49;;;;;;;;;4.33;4.00;;;;;20.90;40.55;101024.31;5050819;28;45555;-67
2022/07/28 05:09:15;;;;;;;;;3.00;3.00;;;;;20.84;40.28;100992.63;5053326;28;45944;-66
2022/07/28 05:11:41;;;;;;;;;4.00;2.00;;;;;21.13;39.91;101011.97;5052985;28;45463;-67
2022/07/28 05:14:07;;;;;;;;;5.00;5.00;;;;;21.22;39.62;101014.28;5052375;28;45386;-66
2022/07/28 05:16:33;;;;;;;;;3.00;3.00;;;;;21.37;39.79;101018.16;5052658;28;45451;-68
2022/07/28 05:18:59;;;;;;;;;4.33;2.67;;;;;21.45;39.44;101024.09;5052884;28;45493;-67
2022/07/28 05:21:24;;;;;;;;;3.00;3.00;;;;;21.52;39.49;101022.94;5053156;28;45487;-67
2022/07/28 05:23:57;;;;;;;;;5.00;3.00;;;;;21.54;39.38;101023.72;5054124;28;45462;-66
2022/07/28 05:26:22;;;;;;;;;4.00;3.00;;;;;21.63;39.21;101025.16;5055656;28;45719;-67
2022/07/28 05:28:55;;;;;;;;;3.00;3.00;;;;;21.70;38.63;101028.47;5062359;28;45378;-67
2022/07/28 05:31:20;;;;;;;;;4.00;3.00;;;;;21.73;38.95;101023.84;5064029;28;45494;-66
2022/07/28 05:33:46;;;;;;;;;3.00;3.00;;;;;21.79;39.04;101017.44;5057910;28;45351;-67
2022/07/28 05:36:11;;;;;;;;;3.67;3.00;;;;;21.85;38.93;101024.31;5043840;28;45399;-67
2022/07/28 05:38:37;;;;;;;;;3.00;3.00;;;;;21.89;38.79;101017.94;5056491;28;45602;-67
2022/07/28 05:41:03;;;;;;;;;2.67;2.67;;;;;21.90;38.57;101012.53;5056610;28;45442;-68
2022/07/28 05:43:28;;;;;;;;;3.67;3.67;;;;;21.98;38.33;101017.56;5055962;28;45532;-68
2022/07/28 05:45:54;;;;;;;;;4.00;4.00;;;;;21.93;38.32;101009.75;5055646;28;45482;-67
2022/07/28 05:48:21;;;;;;;;;3.33;3.33;;;;;22.05;38.29;101020.84;5055526;28;45740;-66
2022/07/28 05:50:48;;;;;;;;;3.00;3.00;;;;;22.10;38.39;101026.84;5055781;28;45479;-67
2022/07/28 05:53:14;;;;;;;;;3.00;3.00;;;;;22.09;38.12;101011.75;5055369;28;46253;-67
2022/07/28 05:55:40;;;;;;;;;4.00;3.00;;;;;22.11;38.27;101010.75;5051119;28;45654;-66
2022/07/28 05:58:05;;;;;;;;;4.67;2.00;;;;;22.19;38.30;101011.31;5051869;28;45368;-66
2022/07/28 06:00:34;;;;;;;;;3.33;2.33;;;;;22.19;38.30;101014.00;5050026;28;45466;-67
2022/07/28 06:03:03;;;;;;;;;2.33;2.33;;;;;22.25;38.07;101018.22;5053689;28;46856;-66
2022/07/28 06:05:30;;;;;;;;;4.00;4.00;;;;;22.27;38.05;101015.50;5055776;28;45434;-66
2022/07/28 06:07:56;;;;;;;;;3.00;3.00;;;;;22.30;38.10;101024.22;5056000;28;45762;-66
2022/07/28 06:10:23;;;;;;;;;5.33;4.00;;;;;22.30;37.61;101016.22;5055929;28;45588;-66
2022/07/28 06:13:01;;;;;;;;;2.00;2.00;;;;;22.35;38.05;101024.03;5055490;28;46772;-65
2022/07/28 06:15:27;;;;;;;;;5.00;2.33;;;;;22.37;37.96;101025.72;5055265;28;45417;-66
2022/07/28 06:17:56;;;;;;;;;2.00;2.00;;;;;22.26;37.80;101000.41;5057444;28;45687;-67
2022/07/28 06:20:26;;;;;;;;;2.00;2.00;;;;;22.40;37.98;101022.94;5059244;28;45389;-66
2022/07/28 06:22:53;;;;;;;;;2.00;2.00;;;;;22.41;37.70;101027.31;5058727;28;46011;-67
2022/07/28 06:25:28;;;;;;;;;4.00;4.00;;;;;22.32;38.57;101035.72;5057564;28;45371;-68
2022/07/28 06:27:57;;;;;;;;;5.33;4.33;;;;;22.29;38.69;101024.31;5041103;28;45257;-68
2022/07/28 06:30:22;;;;;;;;;4.33;3.67;;;;;22.38;38.45;101026.59;5058175;28;45551;-68
2022/07/28 06:32:49;;;;;;;;;5.00;5.00;;;;;22.47;37.90;101030.66;5056494;28;46204;-65
2022/07/28 06:35:16;;;;;;;;;7.00;5.00;;;;;22.54;37.92;101029.47;5043535;28;45723;-65
2022/07/28 06:37:42;;;;;;;;;4.00;4.00;;;;;22.54;37.78;101021.44;5043210;28;45532;-67
2022/07/28 06:40:10;;;;;;;;;4.00;3.00;;;;;22.62;37.67;101024.66;5048962;28;45510;-68
2022/07/28 06:42:36;;;;;;;;;5.33;5.00;;;;;22.53;38.99;101027.72;5054583;28;46593;-67
2022/07/28 06:45:03;;;;;;;;;8.00;4.33;;;;;22.46;39.41;101031.59;5054972;28;45455;-67
2022/07/28 06:47:28;;;;;;;;;7.00;5.67;;;;;22.46;38.64;101028.94;5054321;28;45542;-66
2022/07/28 06:49:54;;;;;;;;;4.00;4.00;;;;;22.38;38.59;101029.25;5054972;28;46176;-67
2022/07/28 06:52:20;;;;;;;;;3.67;3.67;;;;;22.42;39.06;101017.50;5058544;28;45434;-67
2022/07/28 06:54:50;;;;;;;;;4.00;4.00;;;;;22.66;38.61;101034.28;5056997;28;45395;-69
2022/07/28 06:57:18;;;;;;;;;4.00;4.00;;;;;22.90;37.62;101020.75;5052886;28;45715;-66
2022/07/28 06:59:45;;;;;;;;;5.33;5.00;;;;;23.27;37.98;101025.31;5038945;28;45416;-68
2022/07/28 07:02:15;;;;;;;;;7.67;4.67;;;;;23.28;36.83;101005.69;5032378;28;47026;-66
2022/07/28 07:04:41;;;;;;;;;9.00;5.00;;;;;23.39;36.91;101023.91;5035342;28;45476;-67
2022/07/28 07:07:07;;;;;;;;;7.00;6.33;;;;;23.33;36.39;101019.72;5053399;28;46105;-67
2022/07/28 07:09:32;;;;;;;;;5.00;5.00;;;;;23.36;36.32;101030.25;5037854;28;45380;-67
2022/07/28 07:11:58;;;;;;;;;6.00;6.00;;;;;23.21;36.08;101010.47;5034068;28;45470;-68
2022/07/28 07:14:25;;;;;;;;;7.00;5.00;;;;;23.34;37.05;101036.59;5033881;28;45529;-67
2022/07/28 07:16:50;;;;;;;;;8.33;6.33;;;;;23.34;36.15;101036.59;5033992;28;45532;-68
2022/07/28 07:19:16;;;;;;;;;6.33;6.33;;;;;22.99;36.61;101004.34;5033809;28;45363;-66
2022/07/28 07:21:42;;;;;;;;;6.00;6.00;;;;;23.05;37.52;101037.00;5034956;28;45521;-68
2022/07/28 07:24:10;;;;;;;;;6.67;5.33;;;;;22.93;37.01;101031.31;5037792;28;45266;-68
2022/07/28 07:26:36;;;;;;;;;7.33;6.00;;;;;22.94;38.12;101025.88;5019910;28;45491;-66
2022/07/28 07:29:02;;;;;;;;;7.00;6.33;;;;;23.07;36.93;101028.94;5040246;28;45674;-65
2022/07/28 07:31:28;;;;;;;;;5.00;5.00;;;;;23.17;35.78;101035.56;5036813;28;46293;-66
2022/07/28 07:33:53;;;;;;;;;7.00;6.00;;;;;22.97;36.04;101038.25;5049307;28;45526;-67
2022/07/28 07:36:19;;;;;;;;;6.67;6.67;;;;;22.96;36.60;101025.84;5053769;28;45824;-67
2022/07/28 07:38:44;;;;;;;;;6.00;6.00;;;;;23.12;36.79;101034.94;5046866;28;45560;-67
2022/07/28 07:41:11;;;;;;;;;5.67;5.67;;;;;23.20;36.36;101021.22;5037676;28;46147;-66
2022/07/28 07:43:36;;;;;;;;;6.67;6.67;;;;;23.33;36.40;101022.38;5034311;28;45446;-66
2022/07/28 07:46:13;;;;;;;;;2.67;2.67;;;;;23.47;35.82;101037.78;5040229;28;45573;-66
2022/07/28 07:48:39;;;;;;;;;9.00;7.00;;;;;23.55;35.85;101040.09;5034089;28;45502;-68
2022/07/28 07:51:05;;;;;;;;;6.33;6.33;;;;;23.63;35.35;101032.56;5032883;28;45741;-66
2022/07/28 07:53:30;;;;;;;;;7.33;6.67;;;;;23.61;36.02;101032.66;5038093;28;45603;-66
2022/07/28 07:55:56;;;;;;;;;5.67;4.67;;;;;23.81;35.78;101021.00;5042349;28;45260;-67
2022/07/28 07:58:22;;;;;;;;;4.33;4.33;;;;;23.88;36.02;101025.13;5034245;28;45674;-69
2022/07/28 08:01:05;;;;;;;;;7.67;5.00;;;;;23.92;36.12;101025.84;5033990;28;45802;-66
2022/07/28 08:03:31;;;;;;;;;9.00;7.33;;;;;24.03;35.55;101033.31;5036607;28;45536;-66
2022/07/28 08:05:56;;;;;;;;;8.00;6.33;;;;;24.06;35.90;101022.47;5040090;28;45315;-67
2022/07/28 08:08:22;;;;;;;;;6.00;5.67;;;;;24.38;35.41;101031.56;5037231;28;45531;-67
2022/07/28 08:10:50;;;;;;;;;5.33;4.67;;;;;24.56;35.73;101032.47;5035451;28;46220;-68
2022/07/28 08:13:51;;;;;;;;;4.00;4.00;;;;;25.01;34.59;101030.09;5074137;27;45420;-67
2022/07/28 08:16:17;;;;;;;;;4.33;4.33;;;;;25.24;34.49;101026.22;5073863;28;45645;-66
2022/07/28 08:18:43;;;;;;;;;4.00;4.00;;;;;25.37;34.24;101008.50;5066659;28;45631;-67
2022/07/28 08:21:09;;;;;;;;;6.00;5.33;;;;;25.51;33.60;101008.59;5068225;28;45487;-66
2022/07/28 08:23:35;;;;;;;;;5.00;3.33;;;;;25.67;33.70;101013.09;5068846;28;45432;-67
2022/07/28 08:26:02;;;;;;;;;5.33;5.33;;;;;25.68;33.15;101014.84;5069153;28;45828;-67
2022/07/28 08:28:28;;;;;;;;;5.00;5.00;;;;;25.64;33.42;101018.63;5070377;27;45433;-67
2022/07/28 08:30:53;;;;;;;;;6.67;6.67;;;;;25.58;33.11;101001.09;5061888;28;45377;-67
2022/07/28 08:33:20;;;;;;;;;8.00;7.00;;;;;25.26;33.54;100990.34;5065799;28;46128;-66
2022/07/28 08:35:53;;;;;;;;;8.00;8.00;;;;;25.01;33.74;100960.44;5070899;27;45511;-66
2022/07/28 08:38:21;;;;;;;;;9.67;6.67;;;;;25.37;33.73;101013.88;5075091;27;45272;-69
2022/07/28 08:40:48;;;;;;;;;7.33;7.33;;;;;25.34;33.54;101014.03;5072772;27;45410;-67
2022/07/28 08:43:27;;;;;;;;;6.33;6.33;;;;;25.32;33.68;101006.09;5075634;27;46298;-68
2022/07/28 08:45:54;;;;;;;;;8.67;6.67;;;;;25.22;33.54;100988.75;5072739;28;45505;-67
2022/07/28 08:48:23;;;;;;;;;12.00;7.00;;;;;25.48;33.66;101015.94;5072352;28;45370;-68
2022/07/28 08:50:50;;;;;;;;;9.00;7.33;;;;;25.48;33.67;101003.41;5071529;28;45303;-68
2022/07/28 08:53:19;;;;;;;;;7.00;7.00;;;;;25.47;33.35;100984.72;5068911;28;45356;-67
2022/07/28 08:55:47;;;;;;;;;6.00;6.00;;;;;25.77;33.34;101001.75;5069699;28;45411;-67
2022/07/28 08:58:17;;;;;;;;;7.33;6.00;;;;;26.00;33.07;101005.81;5072400;28;45323;-67
2022/07/28 09:00:43;;;;;;;;;8.00;5.00;;;;;26.23;32.82;101003.59;5075411;27;45440;-68
2022/07/28 09:03:11;;;;;;;;;4.33;4.00;;;;;26.39;32.17;101009.78;5073994;27;46202;-66
2022/07/28 09:05:42;;;;;;;;;7.00;6.00;;;;;26.35;32.18;101008.25;5073735;28;45343;-67
2022/07/28 09:08:10;;;;;;;;;5.33;5.33;;;;;26.35;31.95;101002.00;5073938;28;45576;-67
2022/07/28 09:10:36;;;;;;;;;6.00;5.00;;;;;26.41;32.35;101004.31;5074556;28;45513;-66
2022/07/28 09:13:01;;;;;;;;;6.00;6.00;;;;;26.49;32.09;101006.56;5084567;27;45307;-68
2022/07/28 09:15:28;;;;;;;;;7.67;6.33;;;;;26.55;31.48;101001.72;5090284;27;45362;-66
2022/07/28 09:17:54;;;;;;;;;9.67;7.00;;;;;26.62;32.04;101003.06;5093580;27;45243;-67
2022/07/28 09:20:20;;;;;;;;;7.00;7.00;;;;;26.76;31.83;101004.03;5089626;27;46065;-67
2022/07/28 09:23:03;;;;;;;;;6.67;6.33;;;;;26.92;30.92;101004.81;5091197;27;45418;-66
2022/07/28 09:25:29;;;;;;;;;5.33;5.00;;;;;27.06;30.79;101012.88;5076847;27;45540;-68
2022/07/28 09:27:58;;;;;;;;;5.50;5.50;;;;;27.13;31.00;101001.75;5074915;27;45748;-66
2022/07/28 09:30:32;;;;;;;;;5.00;5.00;;;;;27.05;30.99;100988.75;5075935;27;45573;-66
2022/07/28 09:33:20;;;;;;;;;5.50;5.00;;;;;27.06;30.21;100988.66;5075849;27;45400;-67
2022/07/28 09:35:49;;;;;;;;;8.25;5.00;;;;;27.08;30.30;100994.81;5071742;27;45443;-66
2022/07/28 09:38:15;;;;;;;;;4.75;4.75;;;;;27.13;30.56;100981.09;5076317;27;45387;-67
2022/07/28 09:40:42;;;;;;;;;6.50;4.75;;;;;27.27;30.42;100985.63;5076161;27;45350;-67
2022/07/28 09:43:10;;;;;;;;;6.00;4.25;;;;;27.33;29.93;100977.16;5075925;28;46463;-66
2022/07/28 09:45:42;;;;;;;;;4.50;4.50;;;;;27.32;30.13;100980.81;5075564;28;45476;-67
2022/07/28 09:48:09;;;;;;;;;7.50;7.00;;;;;27.36;30.10;100984.16;5074129;27;45508;-66
2022/07/28 09:50:36;;;;;;;;;6.50;6.50;;;;;27.34;30.20;100973.50;5075649;28;45438;-66
2022/07/28 09:53:24;;;;;;;;;7.25;6.50;;;;;27.45;29.49;100980.88;5075054;28;45498;-66
2022/07/28 09:55:54;;;;;;;;;7.00;5.75;;;;;27.27;29.30;100980.25;5075706;27;45492;-72
2022/07/28 09:58:19;;;;;;;;;5.00;4.00;;;;;27.29;29.66;100981.03;5077644;27;45415;-72
2022/07/28 10:00:45;;;;;;;;;5.00;5.00;;;;;27.32;29.53;100978.13;5077204;27;45354;-70
2022/07/28 10:03:23;;;;;;;;;5.75;4.25;;;;;27.39;29.65;100965.16;5074707;28;45550;-67
2022/07/28 10:05:49;;;;;;;;;5.00;5.00;;;;;27.38;28.81;100972.31;5074706;27;45400;-67
2022/07/28 10:08:14;;;;;;;;;6.75;5.25;;;;;27.29;28.86;100959.50;5075128;27;45466;-69
2022/07/28 10:10:40;;;;;;;;;4.50;4.25;;;;;27.45;28.78;100973.69;5075644;28;45436;-74
2022/07/28 10:13:06;;;;;;;;;5.00;5.00;;;;;27.45;28.65;100975.50;5074663;28;46014;-72
2022/07/28 10:18:15;;;;;;;;;9.00;9.00;;;;;27.35;28.55;100971.69;5075326;27;45453;-66
2022/07/28 10:20:43;;;;;;;;;57.25;46.00;;;;;27.35;28.96;100960.91;5075311;28;45307;-74
2022/07/28 10:23:11;;;;;;;;;58.50;45.75;;;;;27.59;29.13;100969.22;5075248;28;46664;-73
2022/07/28 10:25:39;;;;;;;;;5.00;4.00;;;;;27.56;28.17;100964.03;5057134;28;45326;-73
2022/07/28 10:28:05;;;;;;;;;6.00;5.00;;;;;27.52;28.41;100946.38;5076189;28;45911;-68
2022/07/28 10:30:38;;;;;;;;;10.75;8.00;;;;;27.61;27.69;100945.75;5064917;27;45641;-70
2022/07/28 10:33:14;;;;;;;;;6.67;6.67;;;;;27.59;28.43;100929.72;5072788;28;45395;-72
2022/07/28 10:35:41;;;;;;;;;6.00;6.00;;;;;27.76;28.19;100951.94;5077050;28;45173;-69
2022/07/28 10:38:11;;;;;;;;;7.00;5.00;;;;;27.90;27.90;100962.69;5073302;27;45417;-68
2022/07/28 10:40:43;;;;;;;;;6.25;4.00;;;;;28.00;27.73;100955.72;5072574;28;45829;-66
2022/07/28 10:43:10;;;;;;;;;3.00;3.00;;;;;28.17;28.68;100953.72;5071650;28;45475;-67
2022/07/28 10:45:37;;;;;;;;;5.00;4.50;;;;;28.26;27.55;100956.66;5073080;28;45603;-67
2022/07/28 10:48:04;;;;;;;;;3.25;3.25;;;;;28.38;27.31;100963.00;5074370;28;45642;-68
2022/07/28 10:50:31;;;;;;;;;3.50;3.50;;;;;28.39;28.72;100951.25;5073692;28;45346;-68
2022/07/28 10:52:58;;;;;;;;;3.75;3.75;;;;;28.49;27.82;100960.44;5087720;27;47907;-68
2022/07/28 10:55:46;;;;;;;;;5.00;5.00;;;;;28.48;27.35;100957.88;5073363;28;45370;-69
2022/07/28 10:58:16;;;;;;;;;9.00;4.75;;;;;28.36;27.69;100958.66;5072992;28;45341;-68
2022/07/28 11:00:52;;;;;;;;;4.00;4.00;;;;;28.32;27.88;100939.19;5073750;28;45402;-68
2022/07/28 11:03:38;;;;;;;;;5.00;5.00;;;;;28.32;27.79;100955.34;5074441;28;45518;-68
2022/07/28 11:06:23;;;;;;;;;6.75;6.00;;;;;28.28;27.46;100954.69;5073007;27;45519;-68
2022/07/28 11:08:51;;;;;;;;;8.00;8.00;;;;;28.10;27.58;100943.34;5069410;28;45781;-68
2022/07/28 11:11:48;;;;;;;;;9.00;9.00;;;;;28.27;27.64;100955.66;5054916;28;45713;-68
2022/07/28 11:14:23;;;;;;;;;4.50;4.50;;;;;28.43;27.14;100947.38;5072123;27;45382;-67
2022/07/28 11:16:50;;;;;;;;;6.00;4.75;;;;;28.57;27.46;100951.84;5072162;28;45665;-68
2022/07/28 11:19:17;;;;;;;;;3.50;3.50;;;;;28.69;27.50;100948.28;5072514;28;45434;-68
2022/07/28 11:22:14;;;;;;;;;6.00;4.50;;;;;28.87;27.06;100945.25;5072140;28;45589;-66
2022/07/28 11:25:03;;;;;;;;;5.25;5.25;;;;;28.67;26.94;100949.38;5067799;28;46150;-68
2022/07/28 11:27:45;;;;;;;;;4.00;4.00;;;;;28.44;27.12;100921.31;5069172;28;45543;-67
2022/07/28 11:30:34;;;;;;;;;4.00;4.00;;;;;28.67;26.90;100931.34;5068896;28;45864;-66
2022/07/28 11:33:04;;;;;;;;;4.00;4.00;;;;;28.93;26.15;100934.88;5070520;28;46021;-67
2022/07/28 11:35:37;;;;;;;;;4.00;4.00;;;;;29.04;26.51;100938.63;5072418;28;45446;-66
2022/07/28 11:38:02;;;;;;;;;5.00;3.50;;;;;29.15;26.45;100931.50;5052342;28;45623;-67